Time;durP1;ratioP1;P1;durP2;ratioP2;P2;SDS_P1;SDS_P2;PMS_P1;PMS_P2;Temp;Humidity;BMP_temperature;BMP_pressure;BME280_temperature;BME280_humidity;BME280_pressure;Samples;Min_cycle;Max_cycle;Signal;HPM_P1;HPM_P2
2020/12/28 00:01:28;;;;;;;5.53;3.67;;;;;;;;;;668995;208;918776;-65
2020/12/28 00:03:54;;;;;;;7.07;4.70;;;;;;;;;;670543;206;624549;-65
2020/12/28 00:06:20;;;;;;;5.60;3.43;;;;;;;;;;671172;206;629603;-64
2020/12/28 00:08:46;;;;;;;6.20;4.03;;;;;;;;;;662543;209;1633166;-67
2020/12/28 00:11:11;;;;;;;6.20;3.77;;;;;;;;;;664765;208;919392;-64
2020/12/28 00:13:37;;;;;;;6.00;3.70;;;;;;;;;;665005;207;916557;-65
2020/12/28 00:16:03;;;;;;;7.47;3.90;;;;;;;;;;671321;208;915427;-66
2020/12/28 00:18:29;;;;;;;5.03;3.33;;;;;;;;;;665073;208;1020909;-64
2020/12/28 00:20:55;;;;;;;6.97;3.77;;;;;;;;;;666940;208;919835;-64
2020/12/28 00:23:21;;;;;;;6.33;3.00;;;;;;;;;;670398;207;918785;-65
2020/12/28 00:25:46;;;;;;;4.30;3.33;;;;;;;;;;665856;207;918235;-65
2020/12/28 00:28:12;;;;;;;3.70;3.30;;;;;;;;;;665384;208;918276;-69
2020/12/28 00:30:38;;;;;;;5.33;3.30;;;;;;;;;;670109;208;918859;-65
2020/12/28 00:33:04;;;;;;;5.07;3.20;;;;;;;;;;668079;206;919066;-65
2020/12/28 00:35:30;;;;;;;4.40;2.53;;;;;;;;;;664757;206;958923;-64
2020/12/28 00:37:56;;;;;;;5.53;3.23;;;;;;;;;;666897;208;919078;-65
2020/12/28 00:40:22;;;;;;;4.50;2.90;;;;;;;;;;668434;206;918487;-65
2020/12/28 00:42:47;;;;;;;4.27;3.13;;;;;;;;;;666385;206;1161355;-65
2020/12/28 00:45:13;;;;;;;4.70;2.70;;;;;;;;;;663235;206;918525;-65
2020/12/28 00:47:39;;;;;;;4.53;2.73;;;;;;;;;;671792;208;919316;-68
2020/12/28 00:50:05;;;;;;;3.57;2.33;;;;;;;;;;665488;208;918846;-63
2020/12/28 00:52:31;;;;;;;7.27;3.30;;;;;;;;;;667332;207;919331;-66
2020/12/28 00:54:57;;;;;;;4.95;2.60;;;;;;;;;;669570;205;918894;-65
2020/12/28 00:57:22;;;;;;;4.30;2.97;;;;;;;;;;666071;206;919619;-64
2020/12/28 00:59:48;;;;;;;4.33;2.70;;;;;;;;;;667642;208;919385;-64
2020/12/28 01:02:14;;;;;;;5.10;3.27;;;;;;;;;;668854;206;918944;-64
2020/12/28 01:04:40;;;;;;;7.47;4.33;;;;;;;;;;666459;208;919282;-64
2020/12/28 01:07:06;;;;;;;5.70;3.70;;;;;;;;;;669767;206;917989;-65
2020/12/28 01:09:32;;;;;;;6.80;3.62;;;;;;;;;;667710;206;924998;-64
2020/12/28 01:11:57;;;;;;;6.97;3.70;;;;;;;;;;671929;206;919854;-64
2020/12/28 01:14:23;;;;;;;4.47;2.80;;;;;;;;;;668751;208;918758;-67
2020/12/28 01:16:49;;;;;;;5.13;2.87;;;;;;;;;;660557;206;1907070;-66
2020/12/28 01:19:15;;;;;;;4.50;3.17;;;;;;;;;;670562;208;1033536;-65
2020/12/28 01:21:41;;;;;;;4.90;3.17;;;;;;;;;;666566;206;919125;-63
2020/12/28 01:24:07;;;;;;;4.87;3.20;;;;;;;;;;667463;208;919047;-66
2020/12/28 01:26:32;;;;;;;3.37;2.70;;;;;;;;;;668856;208;920354;-64
2020/12/28 01:28:58;;;;;;;3.97;2.90;;;;;;;;;;669256;206;922829;-65
2020/12/28 01:31:24;;;;;;;5.50;2.90;;;;;;;;;;667099;206;939545;-65
2020/12/28 01:33:50;;;;;;;4.27;2.80;;;;;;;;;;666301;206;918889;-64
2020/12/28 01:36:16;;;;;;;6.27;3.17;;;;;;;;;;662037;209;915240;-65
2020/12/28 01:38:42;;;;;;;5.18;2.83;;;;;;;;;;667080;206;915135;-65
2020/12/28 01:41:07;;;;;;;5.76;3.14;;;;;;;;;;658312;206;2238091;-65
2020/12/28 01:43:33;;;;;;;5.43;2.62;;;;;;;;;;671852;208;920047;-65
2020/12/28 01:46:01;;;;;;;3.27;2.27;;;;;;;;;;669878;208;918922;-65
2020/12/28 01:48:27;;;;;;;4.20;2.57;;;;;;;;;;665726;208;918737;-64
2020/12/28 01:50:53;;;;;;;4.40;2.45;;;;;;;;;;670371;208;918343;-63
2020/12/28 01:53:19;;;;;;;4.27;2.70;;;;;;;;;;666909;206;919233;-65
2020/12/28 01:55:45;;;;;;;3.30;2.23;;;;;;;;;;667143;206;918951;-65
2020/12/28 01:58:11;;;;;;;3.93;2.70;;;;;;;;;;664060;206;919376;-65
2020/12/28 02:00:36;;;;;;;4.03;2.90;;;;;;;;;;669413;209;915574;-65
2020/12/28 02:03:02;;;;;;;5.40;3.03;;;;;;;;;;665592;206;918435;-65
2020/12/28 02:05:28;;;;;;;5.03;3.00;;;;;;;;;;668012;208;918871;-63
2020/12/28 02:07:54;;;;;;;4.50;2.90;;;;;;;;;;672167;208;919337;-63
2020/12/28 02:10:20;;;;;;;5.17;3.30;;;;;;;;;;670168;207;919606;-65
2020/12/28 02:12:46;;;;;;;4.53;2.60;;;;;;;;;;666009;207;1020741;-66
2020/12/28 02:15:11;;;;;;;4.23;2.80;;;;;;;;;;673081;208;918673;-65
2020/12/28 02:17:37;;;;;;;4.17;2.87;;;;;;;;;;665970;205;919222;-66
2020/12/28 02:20:03;;;;;;;5.90;3.60;;;;;;;;;;668170;208;919203;-66
2020/12/28 02:22:29;;;;;;;5.80;3.23;;;;;;;;;;669140;208;1021437;-65
2020/12/28 02:24:55;;;;;;;5.73;3.00;;;;;;;;;;667932;206;948157;-65
2020/12/28 02:27:21;;;;;;;5.53;3.23;;;;;;;;;;668563;207;919190;-65
2020/12/28 02:29:47;;;;;;;3.93;2.83;;;;;;;;;;664410;208;919017;-65
2020/12/28 02:32:13;;;;;;;5.80;3.47;;;;;;;;;;669036;207;919128;-63
2020/12/28 02:34:38;;;;;;;3.90;2.57;;;;;;;;;;666467;208;918963;-64
2020/12/28 02:37:04;;;;;;;5.43;3.30;;;;;;;;;;667253;208;1020942;-65
2020/12/28 02:39:30;;;;;;;6.20;3.53;;;;;;;;;;670551;208;915623;-65
2020/12/28 02:41:56;;;;;;;5.70;3.50;;;;;;;;;;671692;206;714360;-65
2020/12/28 02:44:22;;;;;;;4.00;2.50;;;;;;;;;;667920;207;987334;-66
2020/12/28 02:46:48;;;;;;;4.73;3.57;;;;;;;;;;673249;208;918519;-65
2020/12/28 02:49:13;;;;;;;5.15;2.53;;;;;;;;;;664073;207;925321;-65
2020/12/28 02:51:39;;;;;;;5.45;2.60;;;;;;;;;;666763;208;919722;-63
2020/12/28 02:54:06;;;;;;;4.03;3.00;;;;;;;;;;668119;208;920037;-66
2020/12/28 02:56:31;;;;;;;5.33;3.03;;;;;;;;;;663249;210;917071;-66
2020/12/28 02:58:58;;;;;;;5.10;3.10;;;;;;;;;;664199;208;918989;-68
2020/12/28 03:01:23;;;;;;;4.93;2.93;;;;;;;;;;667900;206;914755;-63
2020/12/28 03:03:49;;;;;;;4.30;2.90;;;;;;;;;;672079;208;921789;-64
2020/12/28 03:06:15;;;;;;;7.30;3.03;;;;;;;;;;661865;206;1460915;-66
2020/12/28 03:08:41;;;;;;;5.82;3.53;;;;;;;;;;668836;207;917928;-65
2020/12/28 03:11:07;;;;;;;6.03;3.80;;;;;;;;;;669028;206;1021085;-64
2020/12/28 03:13:33;;;;;;;6.40;4.20;;;;;;;;;;667833;208;915543;-65
2020/12/28 03:15:58;;;;;;;6.70;3.97;;;;;;;;;;668316;207;897017;-66
2020/12/28 03:18:25;;;;;;;4.40;3.50;;;;;;;;;;673167;208;920139;-64
2020/12/28 03:20:50;;;;;;;4.27;3.17;;;;;;;;;;666538;207;918996;-65
2020/12/28 03:23:16;;;;;;;5.03;3.30;;;;;;;;;;667708;206;918340;-65
2020/12/28 03:25:42;;;;;;;6.17;4.03;;;;;;;;;;664914;205;954813;-65
2020/12/28 03:28:08;;;;;;;5.40;4.60;;;;;;;;;;668309;209;918966;-64
2020/12/28 03:30:33;;;;;;;6.27;3.47;;;;;;;;;;662597;207;911219;-64
2020/12/28 03:32:59;;;;;;;10.83;5.97;;;;;;;;;;670324;207;816005;-65
2020/12/28 03:35:25;;;;;;;8.40;5.17;;;;;;;;;;673406;208;622719;-71
2020/12/28 03:37:51;;;;;;;6.43;5.00;;;;;;;;;;668385;206;887991;-67
2020/12/28 03:40:17;;;;;;;6.27;3.93;;;;;;;;;;664763;206;1424788;-65
2020/12/28 03:42:43;;;;;;;7.17;4.50;;;;;;;;;;670407;207;918773;-64
2020/12/28 03:45:08;;;;;;;6.13;3.70;;;;;;;;;;671023;208;816022;-64
2020/12/28 03:47:34;;;;;;;6.97;5.00;;;;;;;;;;667925;206;915190;-66
2020/12/28 03:50:00;;;;;;;8.20;4.93;;;;;;;;;;671977;208;919465;-66
2020/12/28 03:52:26;;;;;;;6.57;4.67;;;;;;;;;;664402;206;1526664;-66
2020/12/28 03:54:52;;;;;;;7.60;5.40;;;;;;;;;;668410;208;919809;-66
2020/12/28 03:57:18;;;;;;;6.13;4.40;;;;;;;;;;666290;207;918797;-64
2020/12/28 03:59:43;;;;;;;11.47;6.17;;;;;;;;;;672273;208;921273;-64
2020/12/28 04:02:09;;;;;;;12.83;4.93;;;;;;;;;;667552;207;918444;-65
2020/12/28 04:04:35;;;;;;;8.80;4.50;;;;;;;;;;666184;207;918676;-64
2020/12/28 04:07:01;;;;;;;8.70;5.35;;;;;;;;;;670735;206;917121;-65
2020/12/28 04:09:27;;;;;;;7.33;5.00;;;;;;;;;;668435;206;920444;-65
2020/12/28 04:11:53;;;;;;;8.15;4.93;;;;;;;;;;663788;206;1297806;-66
2020/12/28 04:14:19;;;;;;;10.17;6.57;;;;;;;;;;671730;206;921981;-65
2020/12/28 04:16:44;;;;;;;9.33;5.20;;;;;;;;;;667164;206;1026769;-62
2020/12/28 04:19:10;;;;;;;6.00;4.17;;;;;;;;;;665127;208;918110;-65
2020/12/28 04:21:36;;;;;;;5.20;3.83;;;;;;;;;;670183;206;1025077;-65
2020/12/28 04:24:02;;;;;;;4.80;3.63;;;;;;;;;;665504;207;920926;-64
2020/12/28 04:26:28;;;;;;;5.30;3.50;;;;;;;;;;667599;208;919721;-65
2020/12/28 04:28:54;;;;;;;5.13;3.27;;;;;;;;;;666227;206;920773;-66
2020/12/28 04:31:19;;;;;;;4.63;3.40;;;;;;;;;;674008;207;920584;-64
2020/12/28 04:33:45;;;;;;;4.63;3.30;;;;;;;;;;665896;206;1254435;-65
2020/12/28 04:36:11;;;;;;;5.37;3.43;;;;;;;;;;667887;208;919705;-66
2020/12/28 04:38:37;;;;;;;6.20;3.40;;;;;;;;;;670796;208;917460;-64
2020/12/28 04:41:03;;;;;;;3.70;2.80;;;;;;;;;;668451;206;919150;-66
2020/12/28 04:43:29;;;;;;;4.35;2.95;;;;;;;;;;665886;207;918575;-66
2020/12/28 04:45:57;;;;;;;6.80;2.77;;;;;;;;;;672778;208;919556;-65
2020/12/28 04:48:23;;;;;;;4.53;3.00;;;;;;;;;;666026;207;918565;-65
2020/12/28 04:50:49;;;;;;;6.80;3.50;;;;;;;;;;668115;206;921268;-66
2020/12/28 04:53:19;;;;;;;5.87;4.60;;;;;;;;;;667007;206;918998;-65
2020/12/28 04:55:45;;;;;;;7.03;5.00;;;;;;;;;;669600;205;918339;-65
2020/12/28 04:58:11;;;;;;;7.23;4.93;;;;;;;;;;668583;208;919682;-66
2020/12/28 05:00:37;;;;;;;7.90;5.47;;;;;;;;;;665647;206;996371;-65
2020/12/28 05:03:02;;;;;;;7.10;4.70;;;;;;;;;;672021;207;921130;-65
2020/12/28 05:05:28;;;;;;;6.73;4.93;;;;;;;;;;666539;207;919208;-67
2020/12/28 05:07:54;;;;;;;7.13;4.87;;;;;;;;;;667050;206;920100;-65
2020/12/28 05:10:20;;;;;;;6.40;5.30;;;;;;;;;;663544;208;917939;-65
2020/12/28 05:12:46;;;;;;;9.87;5.63;;;;;;;;;;664683;210;917271;-65
2020/12/28 05:15:12;;;;;;;7.47;5.43;;;;;;;;;;665007;207;920518;-65
2020/12/28 05:17:37;;;;;;;9.53;5.30;;;;;;;;;;667200;208;918564;-64
2020/12/28 05:20:03;;;;;;;12.60;6.80;;;;;;;;;;671118;206;970908;-64
2020/12/28 05:22:29;;;;;;;9.50;6.33;;;;;;;;;;667860;206;919656;-65
2020/12/28 05:24:55;;;;;;;6.93;5.57;;;;;;;;;;665562;206;920369;-65
2020/12/28 05:27:21;;;;;;;9.70;6.60;;;;;;;;;;671726;206;917678;-65
2020/12/28 05:29:47;;;;;;;9.37;6.43;;;;;;;;;;665965;206;918298;-66
2020/12/28 05:32:14;;;;;;;11.03;6.77;;;;;;;;;;667342;206;919075;-65
2020/12/28 05:34:39;;;;;;;8.40;5.97;;;;;;;;;;671625;206;916876;-65
2020/12/28 05:37:05;;;;;;;8.00;6.00;;;;;;;;;;670266;206;787161;-63
2020/12/28 05:39:31;;;;;;;8.27;5.60;;;;;;;;;;672095;206;623645;-66
2020/12/28 05:41:57;;;;;;;8.30;6.03;;;;;;;;;;669604;205;918964;-65
2020/12/28 05:44:23;;;;;;;10.97;6.13;;;;;;;;;;673797;207;918922;-64
2020/12/28 05:46:49;;;;;;;7.47;4.97;;;;;;;;;;669161;207;922549;-65
2020/12/28 05:49:15;;;;;;;8.47;5.23;;;;;;;;;;672396;207;629256;-66
2020/12/28 05:51:41;;;;;;;7.17;5.93;;;;;;;;;;671471;206;918746;-66
2020/12/28 05:54:07;;;;;;;9.18;5.75;;;;;;;;;;669412;208;863863;-65
2020/12/28 05:56:33;;;;;;;7.67;6.30;;;;;;;;;;665518;208;918673;-65
2020/12/28 05:58:59;;;;;;;8.20;4.60;;;;;;;;;;672328;206;914826;-65
2020/12/28 06:01:25;;;;;;;6.43;5.07;;;;;;;;;;667061;206;915521;-64
2020/12/28 06:03:50;;;;;;;9.60;5.35;;;;;;;;;;669047;206;919756;-64
2020/12/28 06:06:16;;;;;;;9.57;6.27;;;;;;;;;;662057;206;958848;-64
2020/12/28 06:08:42;;;;;;;8.07;5.23;;;;;;;;;;672459;207;912137;-65
2020/12/28 06:11:08;;;;;;;7.07;5.13;;;;;;;;;;668379;206;913500;-65
2020/12/28 06:13:34;;;;;;;6.87;4.57;;;;;;;;;;665232;206;920097;-67
2020/12/28 06:16:02;;;;;;;12.93;5.87;;;;;;;;;;672928;208;847839;-63
2020/12/28 06:18:27;;;;;;;9.03;6.17;;;;;;;;;;664689;208;918732;-66
2020/12/28 06:20:53;;;;;;;10.00;5.90;;;;;;;;;;667813;206;919739;-63
2020/12/28 06:23:24;;;;;;;7.30;4.40;;;;;;;;;;669645;207;912124;-65
2020/12/28 06:25:52;;;;;;;7.57;5.67;;;;;;;;;;669160;211;919854;-66
2020/12/28 06:28:21;;;;;;;8.30;5.30;;;;;;;;;;665151;206;915514;-64
2020/12/28 06:30:47;;;;;;;6.43;4.53;;;;;;;;;;667797;206;915781;-66
2020/12/28 06:33:13;;;;;;;6.43;5.27;;;;;;;;;;669787;208;919127;-66
2020/12/28 06:35:39;;;;;;;7.40;4.63;;;;;;;;;;669280;206;915358;-65
2020/12/28 06:38:05;;;;;;;9.10;6.37;;;;;;;;;;665194;208;958607;-65
2020/12/28 06:40:31;;;;;;;7.07;5.00;;;;;;;;;;667384;208;916039;-64
2020/12/28 06:43:03;;;;;;;7.00;5.30;;;;;;;;;;664548;209;916086;-66
2020/12/28 06:45:29;;;;;;;9.87;5.13;;;;;;;;;;663740;208;946154;-65
2020/12/28 06:47:55;;;;;;;7.10;5.33;;;;;;;;;;665270;206;915979;-65
2020/12/28 06:50:21;;;;;;;6.80;4.83;;;;;;;;;;672914;206;912899;-66
2020/12/28 06:52:46;;;;;;;7.50;5.03;;;;;;;;;;669528;206;915982;-64
2020/12/28 06:55:12;;;;;;;8.63;5.30;;;;;;;;;;667713;205;955566;-65
2020/12/28 06:57:38;;;;;;;6.22;4.55;;;;;;;;;;669233;206;920046;-64
2020/12/28 07:00:05;;;;;;;7.90;5.20;;;;;;;;;;666120;208;921074;-65
2020/12/28 07:02:31;;;;;;;7.40;6.10;;;;;;;;;;664455;208;917835;-66
2020/12/28 07:04:57;;;;;;;7.27;5.20;;;;;;;;;;665118;207;919962;-63
2020/12/28 07:07:22;;;;;;;7.10;5.20;;;;;;;;;;671892;208;918780;-65
2020/12/28 07:09:48;;;;;;;7.37;5.20;;;;;;;;;;663875;206;1261897;-64
2020/12/28 07:12:14;;;;;;;7.87;4.83;;;;;;;;;;666933;208;918950;-64
2020/12/28 07:14:40;;;;;;;7.83;5.20;;;;;;;;;;670051;206;898298;-65
2020/12/28 07:17:06;;;;;;;8.10;5.03;;;;;;;;;;668302;206;911471;-64
2020/12/28 07:19:32;;;;;;;7.70;5.53;;;;;;;;;;665393;206;919809;-65
2020/12/28 07:21:57;;;;;;;7.90;5.23;;;;;;;;;;672673;207;911027;-65
2020/12/28 07:24:23;;;;;;;8.90;6.03;;;;;;;;;;666238;206;916567;-66
2020/12/28 07:26:49;;;;;;;9.20;6.30;;;;;;;;;;667704;206;916578;-66
2020/12/28 07:29:18;;;;;;;8.23;5.03;;;;;;;;;;667541;208;919365;-64
2020/12/28 07:31:45;;;;;;;8.30;5.87;;;;;;;;;;670947;206;918673;-65
2020/12/28 07:34:12;;;;;;;6.90;4.30;;;;;;;;;;668936;206;919903;-65
2020/12/28 07:36:38;;;;;;;11.00;6.00;;;;;;;;;;664600;206;943729;-65
2020/12/28 07:39:04;;;;;;;7.17;4.83;;;;;;;;;;670613;206;914916;-66
2020/12/28 07:41:30;;;;;;;9.50;5.80;;;;;;;;;;665930;206;921155;-66
2020/12/28 07:43:57;;;;;;;8.98;6.43;;;;;;;;;;668883;206;915727;-65
2020/12/28 07:46:27;;;;;;;9.60;6.17;;;;;;;;;;664586;206;916124;-65
2020/12/28 07:48:53;;;;;;;9.80;6.53;;;;;;;;;;665965;210;915587;-65
2020/12/28 07:51:19;;;;;;;9.70;7.00;;;;;;;;;;662270;206;915821;-65
2020/12/28 07:53:45;;;;;;;11.50;6.60;;;;;;;;;;666149;207;915893;-63
2020/12/28 07:56:10;;;;;;;8.13;6.03;;;;;;;;;;668967;206;914450;-65
2020/12/28 07:58:42;;;;;;;6.70;5.53;;;;;;;;;;667749;206;936448;-65
2020/12/28 08:01:09;;;;;;;6.97;5.20;;;;;;;;;;665754;206;915702;-66
2020/12/28 08:03:35;;;;;;;7.63;5.80;;;;;;;;;;666460;206;915584;-64
2020/12/28 08:06:02;;;;;;;9.30;6.10;;;;;;;;;;671951;206;915195;-65
2020/12/28 08:08:28;;;;;;;6.40;4.67;;;;;;;;;;670266;205;917693;-65
2020/12/28 08:10:56;;;;;;;8.07;5.47;;;;;;;;;;667909;206;914502;-66
2020/12/28 08:13:22;;;;;;;7.77;5.37;;;;;;;;;;672160;205;915207;-65
2020/12/28 08:15:48;;;;;;;8.00;5.13;;;;;;;;;;668651;208;919693;-64
2020/12/28 08:18:14;;;;;;;7.27;5.10;;;;;;;;;;667651;206;915837;-65
2020/12/28 08:20:40;;;;;;;7.07;5.60;;;;;;;;;;671162;206;633320;-65
2020/12/28 08:23:06;;;;;;;7.60;4.13;;;;;;;;;;671900;208;618612;-65
2020/12/28 08:25:32;;;;;;;8.30;5.13;;;;;;;;;;669659;206;1000841;-67
2020/12/28 08:27:57;;;;;;;7.00;4.60;;;;;;;;;;669307;206;630625;-64
2020/12/28 08:30:24;;;;;;;7.30;4.40;;;;;;;;;;671904;206;920846;-64
2020/12/28 08:32:50;;;;;;;6.17;3.60;;;;;;;;;;667044;206;920779;-66
2020/12/28 08:35:16;;;;;;;5.87;4.20;;;;;;;;;;666431;206;1031151;-63
2020/12/28 08:37:45;;;;;;;6.83;4.30;;;;;;;;;;670344;206;915494;-66
2020/12/28 08:40:12;;;;;;;6.93;4.40;;;;;;;;;;667418;209;918953;-66
2020/12/28 08:42:38;;;;;;;5.33;3.97;;;;;;;;;;662002;207;918899;-67
2020/12/28 08:45:04;;;;;;;5.53;3.60;;;;;;;;;;668173;206;919242;-65
2020/12/28 08:47:30;;;;;;;6.30;3.90;;;;;;;;;;669497;206;924403;-65
2020/12/28 08:49:56;;;;;;;6.07;3.93;;;;;;;;;;668164;206;919539;-66
2020/12/28 08:52:21;;;;;;;8.07;4.90;;;;;;;;;;666787;208;919029;-65
2020/12/28 08:54:51;;;;;;;7.00;4.33;;;;;;;;;;670105;208;919740;-65
2020/12/28 08:57:18;;;;;;;6.47;4.60;;;;;;;;;;669365;208;920001;-66
2020/12/28 08:59:44;;;;;;;8.27;6.20;;;;;;;;;;666165;208;919139;-62
2020/12/28 09:02:09;;;;;;;6.20;5.07;;;;;;;;;;667407;206;919600;-64
2020/12/28 09:04:35;;;;;;;8.17;5.33;;;;;;;;;;663455;209;1021755;-63
2020/12/28 09:07:01;;;;;;;6.80;4.70;;;;;;;;;;664215;208;919472;-65
2020/12/28 09:09:27;;;;;;;9.63;5.97;;;;;;;;;;666461;206;918127;-64
2020/12/28 09:11:53;;;;;;;8.90;5.83;;;;;;;;;;673903;206;621427;-66
2020/12/28 09:14:19;;;;;;;6.10;4.40;;;;;;;;;;669527;206;632879;-65
2020/12/28 09:16:45;;;;;;;6.40;4.67;;;;;;;;;;672570;207;616640;-66
2020/12/28 09:19:10;;;;;;;7.73;5.30;;;;;;;;;;672099;205;630763;-66
2020/12/28 09:21:36;;;;;;;7.70;5.33;;;;;;;;;;672744;206;657155;-66
2020/12/28 09:24:02;;;;;;;9.10;5.40;;;;;;;;;;670120;206;646380;-66
2020/12/28 09:26:29;;;;;;;10.30;5.50;;;;;;;;;;670851;208;618302;-64
2020/12/28 09:28:54;;;;;;;7.33;5.23;;;;;;;;;;668953;208;614462;-65
2020/12/28 09:31:20;;;;;;;7.33;5.50;;;;;;;;;;667359;208;634714;-66
2020/12/28 09:33:46;;;;;;;7.77;5.33;;;;;;;;;;671156;206;630816;-64
2020/12/28 09:36:12;;;;;;;8.13;5.33;;;;;;;;;;671957;206;627862;-65
2020/12/28 09:38:38;;;;;;;8.83;5.10;;;;;;;;;;670374;208;633585;-66
2020/12/28 09:41:04;;;;;;;8.20;5.77;;;;;;;;;;668484;207;664906;-65
2020/12/28 09:43:30;;;;;;;9.30;5.70;;;;;;;;;;674382;206;624921;-66
2020/12/28 09:45:56;;;;;;;9.00;6.13;;;;;;;;;;667109;206;1152753;-65
2020/12/28 09:48:22;;;;;;;9.70;6.40;;;;;;;;;;670634;207;641718;-65
2020/12/28 09:50:47;;;;;;;9.40;6.30;;;;;;;;;;671925;206;625275;-66
2020/12/28 09:53:13;;;;;;;11.00;6.67;;;;;;;;;;672185;206;618480;-65
2020/12/28 09:55:39;;;;;;;10.60;5.77;;;;;;;;;;668965;206;628190;-66
2020/12/28 09:58:05;;;;;;;7.57;5.37;;;;;;;;;;670201;207;626582;-65
2020/12/28 10:00:31;;;;;;;8.60;5.47;;;;;;;;;;671280;206;626856;-65
2020/12/28 10:02:57;;;;;;;10.70;6.60;;;;;;;;;;670971;206;629147;-64
2020/12/28 10:05:23;;;;;;;8.97;5.43;;;;;;;;;;669305;206;629645;-64
2020/12/28 10:07:49;;;;;;;7.20;4.63;;;;;;;;;;673737;206;627302;-64
2020/12/28 10:10:15;;;;;;;11.30;6.70;;;;;;;;;;671361;207;642989;-65
2020/12/28 10:12:41;;;;;;;9.00;5.40;;;;;;;;;;665682;206;1312794;-66
2020/12/28 10:15:06;;;;;;;15.10;7.07;;;;;;;;;;673886;207;618343;-65
2020/12/28 10:17:32;;;;;;;10.57;6.80;;;;;;;;;;669373;206;628631;-65
2020/12/28 10:19:58;;;;;;;8.50;5.57;;;;;;;;;;671499;206;618004;-65
2020/12/28 10:22:24;;;;;;;10.00;6.20;;;;;;;;;;668254;206;638506;-65
2020/12/28 10:24:51;;;;;;;8.40;5.20;;;;;;;;;;669000;209;629558;-66
2020/12/28 10:27:16;;;;;;;8.57;5.30;;;;;;;;;;669069;206;618371;-65
2020/12/28 10:29:41;;;;;;;11.00;6.97;;;;;;;;;;671361;206;628698;-63
2020/12/28 10:32:07;;;;;;;9.10;6.20;;;;;;;;;;670392;203;650503;-69
2020/12/28 10:34:33;;;;;;;10.17;6.83;;;;;;;;;;672429;206;662751;-65
2020/12/28 10:36:59;;;;;;;11.67;6.97;;;;;;;;;;669270;206;776589;-65
2020/12/28 10:39:25;;;;;;;11.03;6.07;;;;;;;;;;675019;206;630713;-64
2020/12/28 10:41:51;;;;;;;8.43;5.37;;;;;;;;;;669233;206;644598;-64
2020/12/28 10:44:18;;;;;;;12.70;6.97;;;;;;;;;;672253;206;625809;-67
2020/12/28 10:46:43;;;;;;;8.23;5.45;;;;;;;;;;673496;206;616150;-64
2020/12/28 10:49:09;;;;;;;7.70;5.60;;;;;;;;;;667148;208;620923;-64
2020/12/28 10:51:35;;;;;;;10.37;6.40;;;;;;;;;;671188;208;631907;-65
2020/12/28 10:54:01;;;;;;;11.23;6.47;;;;;;;;;;668332;206;676942;-65
2020/12/28 10:56:26;;;;;;;11.15;6.50;;;;;;;;;;675568;207;619390;-65
2020/12/28 10:58:52;;;;;;;9.27;6.63;;;;;;;;;;669685;206;625404;-65
2020/12/28 11:01:20;;;;;;;8.02;5.57;;;;;;;;;;670415;207;633468;-66
2020/12/28 11:03:46;;;;;;;16.13;6.50;;;;;;;;;;672083;208;637414;-66
2020/12/28 11:06:12;;;;;;;13.30;6.53;;;;;;;;;;671505;206;627246;-66
2020/12/28 11:08:38;;;;;;;13.30;6.70;;;;;;;;;;668289;206;622785;-65
2020/12/28 11:11:03;;;;;;;12.33;6.70;;;;;;;;;;674067;208;624511;-65
2020/12/28 11:13:29;;;;;;;11.40;6.20;;;;;;;;;;670210;206;621262;-66
2020/12/28 11:15:55;;;;;;;11.37;6.47;;;;;;;;;;670696;207;627177;-65
2020/12/28 11:18:21;;;;;;;9.13;4.80;;;;;;;;;;667820;206;657544;-66
2020/12/28 11:20:47;;;;;;;10.90;6.27;;;;;;;;;;675268;206;620409;-66
2020/12/28 11:26:06;;;;;;;10.07;6.03;;;;;;;;;;671753;206;626558;-64
2020/12/28 11:28:32;;;;;;;10.43;4.57;;;;;;;;;;671346;206;629954;-65
2020/12/28 11:30:58;;;;;;;12.73;6.97;;;;;;;;;;668656;207;641665;-65
2020/12/28 11:33:24;;;;;;;10.33;6.53;;;;;;;;;;673859;207;626574;-65
2020/12/28 11:35:50;;;;;;;8.87;5.40;;;;;;;;;;668445;206;625556;-64
2020/12/28 11:38:16;;;;;;;9.97;6.30;;;;;;;;;;671256;206;634555;-65
2020/12/28 11:40:42;;;;;;;12.53;5.93;;;;;;;;;;673638;205;772955;-65
2020/12/28 11:43:08;;;;;;;8.90;5.53;;;;;;;;;;673568;208;626186;-64
2020/12/28 11:45:33;;;;;;;12.00;6.07;;;;;;;;;;670966;207;644146;-65
2020/12/28 11:47:59;;;;;;;8.60;5.63;;;;;;;;;;674404;207;630850;-65
2020/12/28 11:50:25;;;;;;;8.23;5.23;;;;;;;;;;670080;206;619050;-65
2020/12/28 11:52:51;;;;;;;11.73;6.77;;;;;;;;;;672693;206;622300;-66
2020/12/28 11:55:18;;;;;;;7.73;5.40;;;;;;;;;;669635;206;632565;-65
2020/12/28 11:57:43;;;;;;;8.13;5.40;;;;;;;;;;669187;208;633247;-65
2020/12/28 12:00:09;;;;;;;10.00;6.43;;;;;;;;;;665005;206;701633;-65
2020/12/28 12:02:35;;;;;;;9.90;5.73;;;;;;;;;;669012;206;633639;-63
2020/12/28 12:05:03;;;;;;;11.50;5.80;;;;;;;;;;673269;206;626437;-69
2020/12/28 12:07:29;;;;;;;11.93;6.07;;;;;;;;;;671758;206;625113;-66
2020/12/28 12:09:55;;;;;;;12.77;5.90;;;;;;;;;;668852;206;733282;-64
2020/12/28 12:12:21;;;;;;;8.90;5.03;;;;;;;;;;672069;206;616159;-64
2020/12/28 12:14:46;;;;;;;11.07;5.97;;;;;;;;;;671919;206;633573;-66
2020/12/28 12:17:12;;;;;;;9.00;5.60;;;;;;;;;;670019;207;632941;-65
2020/12/28 12:19:38;;;;;;;14.40;5.30;;;;;;;;;;670947;206;633827;-65
2020/12/28 12:22:04;;;;;;;11.43;6.70;;;;;;;;;;663514;209;1662885;-66
2020/12/28 12:24:30;;;;;;;9.40;5.80;;;;;;;;;;669136;206;627995;-64
2020/12/28 12:26:56;;;;;;;11.60;5.40;;;;;;;;;;667864;206;624062;-64
2020/12/28 12:29:21;;;;;;;11.70;6.47;;;;;;;;;;674122;206;628022;-65
2020/12/28 12:31:48;;;;;;;9.20;6.00;;;;;;;;;;669176;206;631287;-65
2020/12/28 12:34:14;;;;;;;9.53;4.40;;;;;;;;;;670883;206;623879;-66
2020/12/28 12:36:40;;;;;;;9.47;5.30;;;;;;;;;;672557;208;641485;-65
2020/12/28 12:39:06;;;;;;;8.30;5.12;;;;;;;;;;671336;208;655560;-64
2020/12/28 12:41:31;;;;;;;8.73;5.80;;;;;;;;;;668366;207;633391;-66
2020/12/28 12:43:57;;;;;;;8.67;4.70;;;;;;;;;;673631;208;619582;-65
2020/12/28 12:46:23;;;;;;;8.57;4.53;;;;;;;;;;672184;206;618347;-65
2020/12/28 12:48:49;;;;;;;8.03;5.40;;;;;;;;;;669615;206;676310;-64
2020/12/28 12:51:15;;;;;;;10.30;5.30;;;;;;;;;;672372;205;617141;-65
2020/12/28 12:53:41;;;;;;;6.50;4.40;;;;;;;;;;673821;206;626960;-63
2020/12/28 12:56:07;;;;;;;9.93;5.20;;;;;;;;;;672025;206;632536;-66
2020/12/28 12:58:32;;;;;;;4.43;3.50;;;;;;;;;;669533;206;637016;-65
2020/12/28 13:00:58;;;;;;;8.33;5.37;;;;;;;;;;674920;206;624179;-64
2020/12/28 13:03:24;;;;;;;10.97;5.20;;;;;;;;;;669855;205;638000;-64
2020/12/28 13:05:50;;;;;;;12.40;5.50;;;;;;;;;;670613;206;627565;-65
2020/12/28 13:08:16;;;;;;;9.80;6.27;;;;;;;;;;672238;206;650169;-64
2020/12/28 13:10:42;;;;;;;6.17;3.90;;;;;;;;;;672297;206;619995;-64
2020/12/28 13:13:08;;;;;;;9.60;4.90;;;;;;;;;;670297;206;639362;-63
2020/12/28 13:15:33;;;;;;;9.00;5.23;;;;;;;;;;670867;206;626610;-63
2020/12/28 13:17:59;;;;;;;8.57;5.47;;;;;;;;;;668323;208;613902;-64
2020/12/28 13:20:25;;;;;;;7.17;4.43;;;;;;;;;;672175;206;629727;-65
2020/12/28 13:22:51;;;;;;;7.70;4.53;;;;;;;;;;669572;207;812755;-63
2020/12/28 13:25:17;;;;;;;6.70;3.87;;;;;;;;;;671735;204;627342;-64
2020/12/28 13:27:43;;;;;;;11.37;5.33;;;;;;;;;;670541;208;622000;-64
2020/12/28 13:30:09;;;;;;;7.60;4.37;;;;;;;;;;667224;206;822907;-65
2020/12/28 13:32:35;;;;;;;10.87;4.83;;;;;;;;;;673615;207;625447;-65
2020/12/28 13:35:00;;;;;;;8.17;4.93;;;;;;;;;;669204;207;613279;-64
2020/12/28 13:37:26;;;;;;;7.83;4.70;;;;;;;;;;671165;206;639439;-64
2020/12/28 13:39:52;;;;;;;8.07;4.80;;;;;;;;;;671069;206;630868;-65
2020/12/28 13:42:18;;;;;;;6.63;4.77;;;;;;;;;;671909;206;629322;-65
2020/12/28 13:44:44;;;;;;;9.63;4.80;;;;;;;;;;670147;208;618749;-65
2020/12/28 13:47:10;;;;;;;9.27;4.20;;;;;;;;;;668335;207;633367;-65
2020/12/28 13:49:35;;;;;;;9.33;4.77;;;;;;;;;;672762;205;625746;-65
2020/12/28 13:52:01;;;;;;;11.73;4.23;;;;;;;;;;672333;206;629233;-65
2020/12/28 13:54:27;;;;;;;9.57;4.27;;;;;;;;;;668839;206;657296;-64
2020/12/28 13:56:53;;;;;;;7.37;4.10;;;;;;;;;;674071;206;629889;-66
2020/12/28 13:59:19;;;;;;;9.37;4.93;;;;;;;;;;670492;206;661742;-64
2020/12/28 14:01:45;;;;;;;7.90;4.40;;;;;;;;;;670216;205;628078;-64
2020/12/28 14:04:10;;;;;;;7.10;4.60;;;;;;;;;;674240;206;642211;-65
2020/12/28 14:06:36;;;;;;;8.93;4.70;;;;;;;;;;670813;206;623388;-64
2020/12/28 14:09:03;;;;;;;7.97;4.60;;;;;;;;;;670994;206;626965;-64
2020/12/28 14:11:28;;;;;;;7.60;4.40;;;;;;;;;;668961;206;643833;-63
2020/12/28 14:13:54;;;;;;;10.80;5.17;;;;;;;;;;666960;208;635767;-66
2020/12/28 14:16:20;;;;;;;8.07;4.87;;;;;;;;;;663055;206;2110244;-64
2020/12/28 14:18:46;;;;;;;8.00;4.50;;;;;;;;;;671355;206;619276;-64
2020/12/28 14:21:11;;;;;;;6.63;4.50;;;;;;;;;;671427;208;634657;-65